Time;durP1;ratioP1;P1;durP2;ratioP2;P2;SDS_P1;SDS_P2;PMS_P1;PMS_P2;Temp;Humidity;BMP_temperature;BMP_pressure;BME280_temperature;BME280_humidity;BME280_pressure;Samples;Min_cycle;Max_cycle;Signal;HPM_P1;HPM_P2
2021/12/01 00:02:02;;;;;;;1.50;1.40;;;;;;;4.48;43.71;94133.09;5061403;28;20209;-75
2021/12/01 00:04:28;;;;;;;1.50;1.40;;;;;;;4.34;44.21;94125.22;5048857;28;20167;-75
2021/12/01 00:06:53;;;;;;;0.80;0.80;;;;;;;4.24;44.12;94120.25;5080421;28;20282;-75
2021/12/01 00:09:18;;;;;;;8.70;4.70;;;;;;;3.88;49.38;94136.22;5048953;28;20167;-74
2021/12/01 00:11:44;;;;;;;7.10;5.73;;;;;;;2.63;54.16;94118.31;5059813;28;20201;-75
2021/12/01 00:14:10;;;;;;;5.30;4.47;;;;;;;2.66;54.20;94114.63;5069192;28;20181;-75
2021/12/01 00:16:35;;;;;;;8.10;7.13;;;;;;;2.83;54.46;94142.09;5064065;28;20252;-75
2021/12/01 00:19:01;;;;;;;8.67;7.83;;;;;;;2.90;54.78;94127.56;5067856;28;20243;-75
2021/12/01 00:21:26;;;;;;;7.83;5.37;;;;;;;1.64;59.02;94099.09;5068554;28;20175;-74
2021/12/01 00:23:51;;;;;;;6.87;5.27;;;;;;;1.72;58.49;94129.28;5067647;28;20198;-74
2021/12/01 00:26:17;;;;;;;9.53;6.50;;;;;;;1.66;58.46;94114.44;5056136;28;20197;-74
2021/12/01 00:28:43;;;;;;;7.77;6.07;;;;;;;1.81;57.63;94150.78;5062770;28;20580;-74
2021/12/01 00:31:08;;;;;;;6.70;6.00;;;;;;;2.15;57.37;94140.44;5062713;28;20178;-74
2021/12/01 00:33:34;;;;;;;11.53;7.93;;;;;;;2.00;57.07;94155.72;5068188;28;20171;-74
2021/12/01 00:35:59;;;;;;;5.20;4.80;;;;;;;1.46;58.42;94142.16;5065145;28;20584;-74
2021/12/01 00:38:28;;;;;;;8.73;7.07;;;;;;;1.45;58.66;94133.63;5045996;28;20243;-74
2021/12/01 00:40:54;;;;;;;7.95;6.57;;;;;;;1.30;58.61;94128.22;5051851;28;20179;-74
2021/12/01 00:43:20;;;;;;;10.37;7.50;;;;;;;1.79;57.77;94143.19;5068761;28;20214;-74
2021/12/01 00:46:00;;;;;;;7.28;6.25;;;;;;;1.66;58.29;94112.66;5065717;28;20213;-74
2021/12/01 00:48:44;;;;;;;8.15;6.57;;;;;;;2.06;58.19;94129.28;5067724;28;20174;-74
2021/12/01 00:51:10;;;;;;;5.50;4.45;;;;;;;1.50;58.84;94113.38;5061098;28;20645;-74
2021/12/01 00:53:36;;;;;;;9.00;8.10;;;;;;;1.48;59.46;94110.13;5064779;28;20186;-75
2021/12/01 00:56:02;;;;;;;3.77;3.40;;;;;;;1.35;58.79;94110.53;5065661;28;20264;-74
2021/12/01 00:58:27;;;;;;;6.82;6.18;;;;;;;1.81;58.25;94106.94;5055793;28;20252;-74
2021/12/01 01:00:54;;;;;;;6.27;5.67;;;;;;;1.87;57.38;94103.72;5051519;28;20173;-74
2021/12/01 01:03:20;;;;;;;9.15;7.90;;;;;;;0.89;59.37;94104.75;5067044;28;20193;-74
2021/12/01 01:05:45;;;;;;;10.00;6.87;;;;;;;1.05;60.10;94126.44;5060510;28;20195;-74
2021/12/01 01:08:11;;;;;;;9.53;6.87;;;;;;;1.19;59.94;94119.91;5067295;28;20185;-74
2021/12/01 01:18:41;;;;;;;7.30;6.60;;;;;;;0.84;61.06;94109.50;5066693;28;20269;-74
2021/12/01 01:21:07;;;;;;;8.75;7.10;;;;;;;1.39;60.11;94141.97;5062270;28;20175;-74
2021/12/01 01:23:35;;;;;;;13.85;7.72;;;;;;;1.16;59.70;94146.81;5064436;28;20183;-74
2021/12/01 01:26:02;;;;;;;2.05;1.95;;;;;;;1.05;60.14;94144.47;5065733;28;20194;-74
2021/12/01 01:28:28;;;;;;;6.22;4.93;;;;;;;0.32;62.44;94142.78;5068033;28;20223;-74
2021/12/01 01:30:54;;;;;;;9.80;7.00;;;;;;;0.67;62.54;94115.47;5060161;28;20229;-74
2021/12/01 01:33:21;;;;;;;11.23;7.90;;;;;;;1.19;60.70;94161.94;5053730;28;20195;-74
2021/12/01 01:35:48;;;;;;;12.02;8.00;;;;;;;0.76;61.88;94171.25;5062026;28;20171;-75
2021/12/01 01:38:13;;;;;;;8.50;7.70;;;;;;;0.47;61.92;94166.28;5066268;28;20187;-74
2021/12/01 01:40:39;;;;;;;3.73;3.53;;;;;;;0.55;61.92;94126.00;5066311;28;20178;-74
2021/12/01 01:43:06;;;;;;;8.23;5.23;;;;;;;0.82;60.84;94151.84;5060336;28;20227;-74
2021/12/01 01:45:32;;;;;;;8.75;6.30;;;;;;;1.30;59.62;94124.84;5047871;28;20507;-75
2021/12/01 01:48:05;;;;;;;8.50;7.13;;;;;;;1.20;60.69;94137.00;5066021;28;20178;-74
2021/12/01 01:50:36;;;;;;;9.65;6.65;;;;;;;1.41;59.10;94119.44;5064512;28;20400;-74
2021/12/01 01:53:16;;;;;;;10.68;6.15;;;;;;;1.51;59.88;94124.47;5058177;28;20205;-74
2021/12/01 01:55:44;;;;;;;5.07;3.97;;;;;;;1.64;59.06;94124.09;5048823;28;20175;-75
2021/12/01 01:58:11;;;;;;;7.10;6.55;;;;;;;1.27;59.32;94100.19;5063649;28;20194;-74
2021/12/01 02:00:49;;;;;;;12.88;7.40;;;;;;;1.57;59.05;94103.25;5063153;28;20183;-75
2021/12/01 02:03:15;;;;;;;15.65;3.78;;;;;;;1.50;58.53;94112.53;5062030;28;20270;-74
2021/12/01 02:05:41;;;;;;;9.98;7.15;;;;;;;1.46;59.93;94111.22;5064004;28;20170;-74
2021/12/01 02:08:16;;;;;;;4.70;3.95;;;;;;;1.95;58.00;94120.06;5065914;28;20178;-75
2021/12/01 02:10:48;;;;;;;9.82;5.88;;;;;;;0.58;62.37;94069.06;5059658;28;20169;-74
2021/12/01 02:13:16;;;;;;;5.38;4.97;;;;;;;1.46;59.32;94135.25;5045807;28;20179;-74
2021/12/01 02:15:44;;;;;;;7.45;6.45;;;;;;;1.56;59.26;94114.53;5048502;28;20182;-74
2021/12/01 02:18:09;;;;;;;8.45;6.22;;;;;;;1.32;58.77;94097.13;5064512;28;20271;-75
2021/12/01 02:20:35;;;;;;;6.30;5.63;;;;;;;1.41;58.75;94056.78;5048488;28;20226;-74
2021/12/01 02:23:01;;;;;;;7.33;5.73;;;;;;;1.05;60.19;94087.78;5064179;28;20250;-74
2021/12/01 02:25:27;;;;;;;7.17;5.73;;;;;;;0.87;61.72;94093.75;5063830;28;20178;-75
2021/12/01 02:27:52;;;;;;;6.37;5.33;;;;;;;1.25;60.89;94109.84;5062403;28;20203;-74
2021/12/01 02:30:18;;;;;;;3.30;2.70;;;;;;;1.39;60.41;94053.53;5061068;28;20428;-74
2021/12/01 02:32:43;;;;;;;6.10;4.87;;;;;;;1.88;59.34;94064.09;5063857;28;20194;-74
2021/12/01 02:35:09;;;;;;;8.80;6.80;;;;;;;1.67;59.45;94072.19;5065114;28;20238;-74
2021/12/01 02:37:38;;;;;;;5.63;5.05;;;;;;;2.03;57.82;94087.50;5053078;28;20239;-75
2021/12/01 02:40:05;;;;;;;9.57;5.50;;;;;;;1.99;58.15;94087.00;5044813;28;20182;-75
2021/12/01 02:42:31;;;;;;;6.63;4.70;;;;;;;1.41;59.88;94092.84;5062772;28;20495;-74
2021/12/01 02:44:58;;;;;;;7.37;6.13;;;;;;;1.31;61.30;94072.31;5063642;28;20316;-75
2021/12/01 02:47:26;;;;;;;5.82;5.15;;;;;;;1.81;59.63;94065.66;5049327;28;20214;-75
2021/12/01 02:49:54;;;;;;;6.70;6.00;;;;;;;1.72;58.88;94034.66;5049699;28;20179;-74
2021/12/01 02:52:21;;;;;;;7.20;5.72;;;;;;;0.86;62.44;94104.22;5052798;28;20266;-75
2021/12/01 02:54:46;;;;;;;6.13;5.47;;;;;;;1.33;60.25;94127.91;5044718;28;20209;-74
2021/12/01 02:57:12;;;;;;;4.53;3.90;;;;;;;1.53;59.41;94071.00;5060288;28;20229;-74
2021/12/01 02:59:39;;;;;;;9.43;6.73;;;;;;;0.90;60.94;94115.84;5060505;28;20175;-74
2021/12/01 03:02:05;;;;;;;9.02;5.53;;;;;;;1.47;59.60;94105.13;5059205;28;20221;-74
2021/12/01 03:04:31;;;;;;;1.73;1.73;;;;;;;1.10;59.53;94095.84;5063674;28;20178;-74
2021/12/01 03:06:58;;;;;;;7.68;5.45;;;;;;;1.62;59.49;94137.13;5064213;28;20210;-74
2021/12/01 03:09:26;;;;;;;5.75;4.93;;;;;;;1.46;59.32;94088.88;5055830;28;20221;-75
2021/12/01 03:11:52;;;;;;;5.43;4.95;;;;;;;1.36;60.16;94059.78;5053024;28;20184;-74
2021/12/01 03:14:19;;;;;;;6.95;4.68;;;;;;;1.71;58.77;94087.22;5044774;28;20180;-75
2021/12/01 03:16:47;;;;;;;6.72;5.13;;;;;;;1.74;58.76;94110.09;5056044;28;20183;-74
2021/12/01 03:19:13;;;;;;;5.45;4.95;;;;;;;1.86;56.93;94082.28;5062721;28;20226;-74
2021/12/01 03:21:40;;;;;;;5.20;3.67;;;;;;;2.59;54.32;94062.00;5059957;28;20186;-74
2021/12/01 03:24:07;;;;;;;4.43;1.75;;;;;;;2.15;56.30;94104.31;5062872;28;20421;-74
2021/12/01 03:26:33;;;;;;;3.83;3.40;;;;;;;2.19;57.25;94076.44;5062606;28;20543;-74
2021/12/01 03:29:00;;;;;;;1.85;1.75;;;;;;;2.26;56.74;94103.25;5058324;28;20182;-74
2021/12/01 03:31:26;;;;;;;5.75;5.20;;;;;;;1.36;59.68;94080.41;5063777;28;20175;-74
2021/12/01 03:33:51;;;;;;;4.50;4.10;;;;;;;1.41;59.96;94109.13;5061074;28;20352;-74
2021/12/01 03:36:17;;;;;;;5.00;4.30;;;;;;;2.06;59.28;94118.97;5063068;28;20230;-74
2021/12/01 03:38:42;;;;;;;2.93;2.83;;;;;;;1.86;58.79;94091.78;5048692;28;20179;-74
2021/12/01 03:41:08;;;;;;;5.00;4.17;;;;;;;1.94;58.86;94115.06;5067138;28;20175;-75
2021/12/01 03:43:33;;;;;;;5.70;3.20;;;;;;;2.59;55.63;94105.88;5058575;28;20179;-74
2021/12/01 03:45:59;;;;;;;2.80;2.10;;;;;;;3.42;52.66;94105.75;5054817;28;20209;-74
2021/12/01 03:48:25;;;;;;;1.40;1.30;;;;;;;4.55;48.96;94096.13;5068318;28;20198;-75
2021/12/01 03:50:52;;;;;;;1.13;1.13;;;;;;;4.77;48.67;94108.31;5063213;28;20178;-74
2021/12/01 03:53:19;;;;;;;1.33;1.23;;;;;;;5.31;45.73;94098.81;5066376;28;20230;-75
2021/12/01 03:55:45;;;;;;;0.90;0.90;;;;;;;5.34;46.37;94094.09;5062235;28;20428;-74
2021/12/01 03:58:11;;;;;;;1.20;1.10;;;;;;;5.80;44.63;94069.81;5066918;28;20538;-75
2021/12/01 04:00:36;;;;;;;1.47;1.37;;;;;;;5.51;45.73;94084.38;5058443;28;20457;-74
2021/12/01 04:03:02;;;;;;;1.57;1.47;;;;;;;5.76;45.14;94060.78;5067515;28;20175;-75
2021/12/01 04:05:28;;;;;;;1.27;1.10;;;;;;;5.60;45.23;94059.97;5066792;28;20632;-74
2021/12/01 04:07:54;;;;;;;1.63;1.47;;;;;;;6.14;46.03;94060.69;5067907;28;20469;-74
2021/12/01 04:10:21;;;;;;;1.67;1.30;;;;;;;5.31;47.44;94060.72;5066004;28;20259;-74
2021/12/01 04:12:46;;;;;;;1.30;1.20;;;;;;;5.70;45.27;94056.31;5065040;28;20875;-75
2021/12/01 04:15:13;;;;;;;1.47;1.47;;;;;;;5.70;45.56;94061.50;5067728;28;20424;-74
2021/12/01 04:17:42;;;;;;;1.70;1.60;;;;;;;5.57;46.65;94049.13;5066209;28;20464;-74
2021/12/01 04:20:08;;;;;;;1.10;1.03;;;;;;;5.72;46.84;94046.53;5067550;28;20449;-75
2021/12/01 04:22:35;;;;;;;1.93;1.73;;;;;;;6.04;46.03;94051.38;5065189;28;20448;-74
2021/12/01 04:25:01;;;;;;;1.43;1.33;;;;;;;5.92;46.84;94067.56;5066414;28;20417;-74
2021/12/01 04:27:26;;;;;;;1.80;1.70;;;;;;;5.90;46.74;94054.78;5065853;28;20563;-74
2021/12/01 04:29:52;;;;;;;1.10;1.10;;;;;;;6.01;45.58;94038.78;5065874;28;20193;-74
2021/12/01 04:32:17;;;;;;;1.30;1.20;;;;;;;6.36;45.53;94044.16;5061755;28;20193;-74
2021/12/01 04:34:43;;;;;;;1.77;1.40;;;;;;;6.21;46.02;94062.38;5067531;28;20234;-74
2021/12/01 04:37:08;;;;;;;2.27;1.53;;;;;;;6.39;45.01;94056.81;5050817;28;20180;-74
2021/12/01 04:39:34;;;;;;;1.40;1.30;;;;;;;6.04;47.20;94056.56;5049654;28;20530;-74
2021/12/01 04:42:06;;;;;;;3.53;1.10;;;;;;;6.13;46.78;94059.06;5053437;28;20190;-74
2021/12/01 04:44:34;;;;;;;1.23;1.10;;;;;;;6.03;47.27;94070.56;5067034;28;20151;-74
2021/12/01 04:47:02;;;;;;;2.80;1.10;;;;;;;6.09;47.21;94070.81;5066140;28;20882;-74
2021/12/01 04:49:28;;;;;;;1.20;1.10;;;;;;;5.67;47.95;94058.28;5055558;28;20988;-74
2021/12/01 04:51:57;;;;;;;1.53;1.10;;;;;;;6.17;47.34;94073.31;5059578;28;20460;-73
2021/12/01 04:54:24;;;;;;;1.47;1.00;;;;;;;6.23;47.07;94075.19;5066401;28;20912;-74
2021/12/01 04:56:51;;;;;;;1.10;1.10;;;;;;;6.37;47.64;94076.94;5066223;28;20468;-74
2021/12/01 04:59:18;;;;;;;2.37;1.50;;;;;;;6.51;47.59;94071.91;5049410;28;20445;-74
2021/12/01 05:01:44;;;;;;;1.80;1.13;;;;;;;6.40;47.85;94079.19;5051207;28;20773;-74
2021/12/01 05:04:11;;;;;;;1.00;1.00;;;;;;;6.42;47.14;94105.78;5051255;28;20444;-74
2021/12/01 05:06:37;;;;;;;1.10;1.10;;;;;;;6.22;46.95;94099.53;5065431;28;20209;-74
2021/12/01 05:09:05;;;;;;;3.90;1.40;;;;;;;6.02;48.04;94113.09;5065227;28;20507;-74
2021/12/01 05:11:30;;;;;;;13.93;1.80;;;;;;;6.30;47.04;94112.44;5058466;28;20439;-74
2021/12/01 05:13:56;;;;;;;1.43;1.33;;;;;;;6.44;46.43;94108.22;5064702;28;20853;-74
2021/12/01 05:16:22;;;;;;;2.27;1.63;;;;;;;6.25;47.35;94104.38;5060285;28;20180;-74
2021/12/01 05:18:47;;;;;;;1.53;1.30;;;;;;;6.36;47.95;94129.91;5044592;28;20300;-74
2021/12/01 05:21:16;;;;;;;1.80;1.30;;;;;;;6.53;47.23;94127.91;5051655;28;20512;-75
2021/12/01 05:23:41;;;;;;;1.87;1.20;;;;;;;5.93;49.43;94132.31;5052288;28;20697;-74
2021/12/01 05:26:09;;;;;;;1.40;1.30;;;;;;;6.67;47.39;94126.25;5056398;28;20471;-74
2021/12/01 05:28:35;;;;;;;1.70;1.43;;;;;;;6.25;49.17;94131.16;5042367;28;20294;-74
2021/12/01 05:31:00;;;;;;;1.40;1.30;;;;;;;6.49;48.05;94138.84;5049762;28;20413;-74
2021/12/01 05:33:26;;;;;;;2.33;1.30;;;;;;;6.63;47.96;94135.44;5050126;28;20610;-74
2021/12/01 05:35:52;;;;;;;1.53;1.43;;;;;;;6.83;46.90;94118.25;5061943;28;20171;-74
2021/12/01 05:38:17;;;;;;;1.50;1.40;;;;;;;6.63;48.69;94112.03;5048994;28;20191;-74
2021/12/01 05:40:43;;;;;;;2.10;1.90;;;;;;;6.33;49.03;94108.69;5048449;28;20305;-74
2021/12/01 05:43:08;;;;;;;1.70;1.60;;;;;;;5.93;49.94;94116.72;5064274;28;20190;-73
2021/12/01 05:45:35;;;;;;;1.17;1.07;;;;;;;6.14;49.82;94102.25;5064593;28;20206;-73
2021/12/01 05:48:01;;;;;;;2.50;1.30;;;;;;;6.58;48.89;94104.78;5064186;28;20656;-73
2021/12/01 05:50:27;;;;;;;1.00;1.00;;;;;;;6.36;50.15;94096.13;5063326;28;20413;-74
2021/12/01 05:52:52;;;;;;;1.50;1.40;;;;;;;6.60;50.13;94107.19;5061355;28;20246;-74
2021/12/01 05:55:18;;;;;;;2.50;1.77;;;;;;;6.88;49.38;94101.28;5065161;28;20162;-73
2021/12/01 05:57:43;;;;;;;1.57;1.20;;;;;;;6.64;50.83;94116.25;5064412;28;20179;-73
2021/12/01 06:00:12;;;;;;;1.20;1.10;;;;;;;6.90;49.54;94118.31;5064288;28;20480;-74
2021/12/01 06:02:38;;;;;;;1.37;1.30;;;;;;;6.62;50.38;94136.41;5062402;28;20656;-73
2021/12/01 06:05:05;;;;;;;2.20;1.30;;;;;;;6.76;49.38;94122.56;5063506;28;20417;-74
2021/12/01 06:07:30;;;;;;;3.20;1.53;;;;;;;6.79;49.30;94129.19;5064579;28;20469;-73
2021/12/01 06:10:01;;;;;;;3.17;1.20;;;;;;;7.16;48.00;94115.16;5062919;28;20401;-73
2021/12/01 06:12:26;;;;;;;1.00;1.00;;;;;;;6.92;48.79;94141.53;5055935;28;20178;-74
2021/12/01 06:14:53;;;;;;;3.20;1.63;;;;;;;7.22;47.26;94104.00;5064537;28;20511;-74
2021/12/01 06:17:18;;;;;;;1.47;1.37;;;;;;;6.76;49.87;94116.56;5064114;28;20252;-73
2021/12/01 06:19:44;;;;;;;2.10;1.30;;;;;;;6.71;48.85;94137.91;5058387;28;20486;-73
2021/12/01 06:22:10;;;;;;;1.43;1.33;;;;;;;7.17;48.67;94136.78;5063059;28;20193;-73
2021/12/01 06:24:36;;;;;;;1.80;1.70;;;;;;;6.47;48.81;94130.41;5063726;28;20166;-72
2021/12/01 06:27:01;;;;;;;1.10;1.10;;;;;;;6.79;49.05;94127.41;5064527;28;20202;-73
2021/12/01 06:29:27;;;;;;;1.47;1.30;;;;;;;6.88;49.76;94154.09;5053792;28;20495;-73
2021/12/01 06:31:52;;;;;;;2.80;1.10;;;;;;;6.75;49.92;94157.34;5055623;28;21161;-73
2021/12/01 06:34:18;;;;;;;1.80;1.70;;;;;;;6.67;49.93;94154.88;5063406;28;20177;-73
2021/12/01 06:36:43;;;;;;;2.43;2.23;;;;;;;6.73;49.54;94159.31;5064338;28;20221;-73
2021/12/01 06:39:09;;;;;;;1.60;1.50;;;;;;;7.01;48.92;94148.25;5058768;28;20178;-72
2021/12/01 06:41:35;;;;;;;1.83;1.57;;;;;;;7.08;49.42;94163.94;5063970;28;20179;-73
2021/12/01 06:44:01;;;;;;;1.50;1.40;;;;;;;6.82;49.92;94170.44;5063071;28;20197;-73
2021/12/01 06:46:28;;;;;;;1.17;1.00;;;;;;;6.79;50.05;94153.41;5061797;28;20449;-72
2021/12/01 06:48:54;;;;;;;3.33;1.80;;;;;;;7.63;48.87;94162.44;5058782;28;20603;-73
2021/12/01 06:51:20;;;;;;;1.70;1.60;;;;;;;7.79;48.45;94171.75;5062478;28;20444;-72
2021/12/01 06:53:45;;;;;;;1.37;1.27;;;;;;;8.17;46.92;94203.50;5063321;28;20488;-73
2021/12/01 06:56:11;;;;;;;1.10;1.10;;;;;;;7.71;47.80;94213.56;5063985;28;20166;-73
2021/12/01 06:58:37;;;;;;;1.90;1.23;;;;;;;8.13;47.56;94212.69;5059833;28;20193;-73
2021/12/01 07:01:05;;;;;;;5.67;5.17;;;;;;;6.09;49.68;94239.63;5063826;28;20166;-73
2021/12/01 07:03:31;;;;;;;8.60;4.87;;;;;;;5.24;51.40;94234.41;5056286;28;20507;-73
2021/12/01 07:05:57;;;;;;;8.90;7.20;;;;;;;3.70;55.79;94226.97;5047870;28;20444;-72
2021/12/01 07:08:23;;;;;;;8.33;5.90;;;;;;;4.32;54.04;94247.09;5051121;28;20504;-73
2021/12/01 07:10:48;;;;;;;6.50;5.00;;;;;;;3.89;55.54;94225.84;5057406;28;20269;-72
2021/12/01 07:13:14;;;;;;;7.60;6.50;;;;;;;4.63;54.91;94233.41;5058224;28;20186;-73
2021/12/01 07:15:40;;;;;;;3.20;2.87;;;;;;;3.90;55.38;94237.78;5056637;28;20674;-72
2021/12/01 07:18:05;;;;;;;7.93;7.10;;;;;;;4.60;55.05;94238.94;5061898;28;20244;-73
2021/12/01 07:20:31;;;;;;;5.57;5.07;;;;;;;4.98;54.55;94182.06;5060202;28;20470;-73
2021/12/01 07:22:56;;;;;;;7.77;6.57;;;;;;;5.77;52.72;94218.94;5044949;28;20191;-73
2021/12/01 07:25:22;;;;;;;12.73;8.43;;;;;;;6.29;51.61;94227.75;5044210;28;20191;-73
2021/12/01 07:27:47;;;;;;;6.03;5.37;;;;;;;5.48;52.95;94214.47;5053031;28;20203;-73
2021/12/01 07:30:13;;;;;;;6.73;5.00;;;;;;;4.95;54.97;94218.69;5051629;28;20193;-73
2021/12/01 07:32:39;;;;;;;9.40;8.40;;;;;;;5.33;54.45;94227.41;5057218;28;20173;-73
2021/12/01 07:35:05;;;;;;;6.40;5.77;;;;;;;5.14;53.50;94231.25;5058406;28;20964;-73
2021/12/01 07:37:30;;;;;;;9.40;8.23;;;;;;;5.51;52.35;94216.72;5060613;28;20200;-73
2021/12/01 07:39:56;;;;;;;9.17;8.10;;;;;;;5.24;52.46;94215.44;5054751;28;20495;-73
2021/12/01 07:42:22;;;;;;;9.40;7.90;;;;;;;6.01;51.83;94217.97;5054391;28;20208;-73
2021/12/01 07:44:48;;;;;;;8.70;7.40;;;;;;;6.34;50.85;94217.63;5051446;28;20519;-73
2021/12/01 07:47:13;;;;;;;6.33;4.87;;;;;;;5.96;52.96;94190.91;5054670;28;20468;-73
2021/12/01 07:49:40;;;;;;;2.87;2.53;;;;;;;6.92;51.18;94196.16;5052298;28;20191;-73
2021/12/01 07:52:06;;;;;;;2.37;1.57;;;;;;;7.67;50.43;94225.34;5052160;28;20185;-73
2021/12/01 07:54:32;;;;;;;1.70;1.60;;;;;;;7.43;48.99;94220.31;5056986;28;20491;-73
2021/12/01 07:56:58;;;;;;;1.13;1.13;;;;;;;7.90;48.03;94210.31;5052809;28;20409;-75
2021/12/01 07:59:23;;;;;;;1.67;1.33;;;;;;;8.14;47.35;94218.72;5054521;28;20246;-73
2021/12/01 08:01:49;;;;;;;1.90;1.30;;;;;;;8.79;45.76;94235.78;5059227;28;20179;-73
2021/12/01 08:04:16;;;;;;;6.03;5.50;;;;;;;7.98;47.04;94238.84;5054520;28;20198;-73
2021/12/01 08:06:45;;;;;;;6.90;6.20;;;;;;;6.77;51.55;94248.19;5053578;28;20457;-73
2021/12/01 08:09:11;;;;;;;8.70;6.57;;;;;;;6.78;51.08;94253.22;5049603;28;20512;-73
2021/12/01 08:11:38;;;;;;;9.97;8.80;;;;;;;6.90;51.72;94269.16;5055328;28;20422;-73
2021/12/01 08:14:06;;;;;;;9.93;8.10;;;;;;;6.45;52.30;94265.78;5056294;28;20537;-73
2021/12/01 08:16:31;;;;;;;10.30;6.60;;;;;;;6.87;50.86;94258.31;5060581;28;20408;-73
2021/12/01 08:18:57;;;;;;;8.47;7.50;;;;;;;6.77;51.14;94262.00;5049391;28;20478;-73
2021/12/01 08:21:23;;;;;;;9.10;8.20;;;;;;;7.14;51.01;94273.25;5049627;28;20425;-73
2021/12/01 08:23:51;;;;;;;8.23;7.43;;;;;;;6.55;51.81;94244.72;5053898;28;20198;-73
2021/12/01 08:26:16;;;;;;;9.73;7.40;;;;;;;6.27;52.68;94254.91;5053919;28;20456;-73
2021/12/01 08:28:45;;;;;;;13.50;8.37;;;;;;;6.39;52.58;94253.47;5046892;28;20434;-72
2021/12/01 08:31:11;;;;;;;6.53;5.93;;;;;;;7.13;51.13;94253.44;5064135;28;20171;-73
2021/12/01 08:33:36;;;;;;;11.47;7.07;;;;;;;6.65;52.67;94266.84;5056800;28;20444;-73
2021/12/01 08:36:02;;;;;;;11.83;8.37;;;;;;;6.86;52.06;94251.50;5063231;28;20224;-73
2021/12/01 08:38:27;;;;;;;10.17;7.53;;;;;;;6.39;51.81;94248.28;5061142;28;20167;-73
2021/12/01 08:40:53;;;;;;;10.10;7.00;;;;;;;7.17;49.74;94259.06;5062458;28;20245;-72
2021/12/01 08:43:18;;;;;;;8.93;8.03;;;;;;;7.18;50.14;94256.28;5059548;28;20792;-73
2021/12/01 08:45:44;;;;;;;11.53;9.23;;;;;;;7.01;51.11;94252.28;5058189;28;20182;-73
2021/12/01 08:48:10;;;;;;;12.20;7.73;;;;;;;6.98;51.22;94271.69;5055691;28;20254;-72
2021/12/01 08:50:36;;;;;;;9.40;7.83;;;;;;;6.96;50.74;94247.66;5053741;28;20178;-73
2021/12/01 08:53:01;;;;;;;9.97;8.10;;;;;;;7.22;49.37;94256.72;5054067;28;20505;-72
2021/12/01 08:55:27;;;;;;;4.23;3.83;;;;;;;6.40;51.24;94258.50;5057750;28;20175;-72
2021/12/01 08:57:53;;;;;;;11.83;8.63;;;;;;;6.81;51.79;94245.06;5059504;28;20197;-72
2021/12/01 09:00:20;;;;;;;13.77;8.53;;;;;;;6.79;52.74;94249.63;5065846;28;20432;-73
2021/12/01 09:02:46;;;;;;;18.00;10.27;;;;;;;7.60;50.81;94259.94;5056408;28;20181;-73
2021/12/01 09:05:12;;;;;;;23.90;15.70;;;;;;;8.11;50.06;94250.38;5063966;28;20437;-73
2021/12/01 09:07:38;;;;;;;24.70;15.00;;;;;;;8.62;48.71;94267.59;5060488;28;20938;-73
2021/12/01 09:10:05;;;;;;;15.07;11.60;;;;;;;8.84;47.63;94281.34;5061547;28;20430;-72
2021/12/01 09:12:31;;;;;;;11.20;9.10;;;;;;;8.69;47.88;94269.25;5061464;28;20441;-73
2021/12/01 09:14:57;;;;;;;10.07;8.20;;;;;;;8.24;48.48;94253.06;5063874;28;20498;-73
2021/12/01 09:17:23;;;;;;;13.63;9.83;;;;;;;7.72;50.23;94269.84;5061638;28;20178;-72
2021/12/01 09:19:50;;;;;;;15.37;9.50;;;;;;;8.18;48.55;94259.06;5065637;28;20460;-72
2021/12/01 09:22:17;;;;;;;10.97;8.90;;;;;;;8.86;47.90;94280.19;5052140;28;20433;-73
2021/12/01 09:24:43;;;;;;;11.03;9.47;;;;;;;9.03;48.27;94265.00;5053951;28;20430;-73
2021/12/01 09:27:09;;;;;;;14.80;10.27;;;;;;;9.75;47.18;94268.03;5056406;28;20460;-73
2021/12/01 09:29:34;;;;;;;13.63;10.10;;;;;;;8.73;47.37;94282.72;5057984;28;20413;-72
2021/12/01 09:32:00;;;;;;;15.47;10.20;;;;;;;9.07;48.84;94261.00;5057061;28;20246;-73
2021/12/01 09:34:26;;;;;;;11.80;8.83;;;;;;;9.12;47.83;94273.47;5059908;28;20175;-73
2021/12/01 09:36:52;;;;;;;12.20;10.50;;;;;;;9.03;48.54;94278.06;5061692;28;20171;-73
2021/12/01 09:39:17;;;;;;;12.70;9.70;;;;;;;10.33;44.85;94260.47;5059759;28;20274;-73
2021/12/01 09:41:43;;;;;;;10.43;8.77;;;;;;;10.71;43.32;94261.63;5063617;28;20202;-73
2021/12/01 09:44:09;;;;;;;11.40;10.13;;;;;;;9.24;46.32;94255.44;5062696;28;20256;-72
2021/12/01 09:46:35;;;;;;;11.27;10.13;;;;;;;9.83;46.00;94254.78;5059654;28;20452;-72
2021/12/01 09:49:00;;;;;;;13.30;9.90;;;;;;;10.44;44.88;94245.19;5056182;28;20179;-72
2021/12/01 09:51:26;;;;;;;10.83;9.50;;;;;;;10.56;43.85;94254.00;5059469;28;21199;-72
2021/12/01 09:53:54;;;;;;;12.70;10.87;;;;;;;10.09;44.93;94253.19;5058320;28;20190;-72
2021/12/01 09:56:20;;;;;;;15.37;10.53;;;;;;;10.15;45.33;94268.09;5063615;28;20409;-72
2021/12/01 09:58:45;;;;;;;12.27;10.77;;;;;;;10.03;44.95;94257.41;5056431;28;20523;-73
2021/12/01 10:01:20;;;;;;;13.83;10.83;;;;;;;9.98;45.74;94252.00;5059569;28;20426;-72
2021/12/01 10:03:46;;;;;;;10.73;8.77;;;;;;;9.03;48.08;94254.56;5060867;28;20174;-72
2021/12/01 10:06:15;;;;;;;13.10;10.27;;;;;;;10.27;45.16;94236.91;5062073;28;20456;-72
2021/12/01 10:09:00;;;;;;;11.63;8.60;;;;;;;10.89;43.75;94240.06;5056523;28;20437;-72
2021/12/01 10:11:27;;;;;;;13.43;8.93;;;;;;;11.12;43.18;94237.75;5058039;28;20749;-72
2021/12/01 10:14:01;;;;;;;9.97;8.27;;;;;;;11.78;42.56;94250.72;5056287;28;20429;-73
2021/12/01 10:16:30;;;;;;;17.50;10.70;;;;;;;12.40;41.25;94243.03;5057120;28;20427;-73
2021/12/01 10:18:58;;;;;;;16.47;11.00;;;;;;;12.64;39.59;94239.59;5058541;28;20472;-74
2021/12/01 10:21:29;;;;;;;16.53;11.63;;;;;;;12.43;40.22;94245.25;5057103;28;20410;-72
2021/12/01 10:23:58;;;;;;;14.90;11.40;;;;;;;12.66;40.97;94250.66;5055774;28;20468;-73
2021/12/01 10:26:25;;;;;;;13.30;11.90;;;;;;;12.60;40.43;94243.66;5059111;28;20461;-72
2021/12/01 10:28:57;;;;;;;11.17;10.07;;;;;;;11.84;41.30;94237.59;5052270;28;20433;-72
2021/12/01 10:31:40;;;;;;;16.90;12.17;;;;;;;12.21;41.90;94234.31;5053897;28;20418;-72
2021/12/01 10:34:36;;;;;;;17.10;12.13;;;;;;;12.21;40.47;94240.34;5057262;28;20475;-73
2021/12/01 10:37:22;;;;;;;15.13;13.17;;;;;;;11.74;42.09;94245.09;5059344;28;20417;-72
2021/12/01 10:40:03;;;;;;;14.80;12.77;;;;;;;11.97;42.58;94249.00;5059193;28;20463;-72
2021/12/01 10:42:29;;;;;;;16.33;12.90;;;;;;;11.44;43.44;94239.63;5061628;28;20417;-73
2021/12/01 10:45:06;;;;;;;15.17;13.17;;;;;;;12.01;42.60;94250.19;5058497;28;20437;-73
2021/12/01 10:47:43;;;;;;;17.37;14.23;;;;;;;12.19;41.74;94247.63;5054461;28;20441;-73
2021/12/01 10:50:11;;;;;;;15.87;11.20;;;;;;;11.86;42.24;94248.66;5055787;28;20436;-73
2021/12/01 10:52:42;;;;;;;12.60;10.10;;;;;;;12.52;41.60;94246.56;5057998;28;20440;-73
2021/12/01 10:55:09;;;;;;;14.40;10.57;;;;;;;12.02;41.06;94241.31;5054407;28;20438;-73
2021/12/01 10:57:43;;;;;;;13.23;11.13;;;;;;;12.38;42.41;94242.44;5054058;28;20409;-73
2021/12/01 11:00:18;;;;;;;17.67;10.40;;;;;;;11.61;42.47;94226.81;5056802;28;20434;-73
2021/12/01 11:02:44;;;;;;;12.40;9.40;;;;;;;12.27;42.51;94230.81;5050249;28;20461;-75
2021/12/01 11:05:24;;;;;;;9.57;8.57;;;;;;;12.47;41.16;94220.97;5058309;28;20438;-75
2021/12/01 11:07:49;;;;;;;12.40;9.10;;;;;;;11.93;42.52;94226.84;5055095;28;20527;-76
2021/12/01 11:10:19;;;;;;;13.07;9.10;;;;;;;12.04;43.65;94218.31;5055005;28;20437;-76
2021/12/01 11:12:59;;;;;;;13.20;8.07;;;;;;;11.75;43.18;94220.50;5059332;28;20175;-76
2021/12/01 11:15:31;;;;;;;11.57;8.93;;;;;;;12.73;42.38;94213.84;5059012;28;20500;-76
2021/12/01 11:17:58;;;;;;;12.33;10.20;;;;;;;11.58;41.86;94198.44;5054711;28;20513;-77
2021/12/01 11:20:47;;;;;;;11.77;7.23;;;;;;;10.51;43.82;94217.22;5060818;28;20512;-75
2021/12/01 11:23:23;;;;;;;12.23;9.83;;;;;;;11.68;43.33;94217.13;5056637;28;20477;-75
2021/12/01 11:25:57;;;;;;;13.57;10.30;;;;;;;12.85;40.91;94192.91;5062158;28;20443;-75
2021/12/01 11:28:27;;;;;;;10.07;9.07;;;;;;;13.15;40.52;94202.69;5059131;28;20437;-76
2021/12/01 11:30:56;;;;;;;11.03;8.60;;;;;;;12.48;41.36;94195.50;5061679;28;20409;-76
2021/12/01 11:33:24;;;;;;;10.93;7.57;;;;;;;12.80;40.66;94183.06;5056888;28;20440;-75
2021/12/01 11:36:05;;;;;;;9.80;8.77;;;;;;;13.56;40.64;94183.53;5054740;28;20421;-77
2021/12/01 11:38:31;;;;;;;11.90;10.57;;;;;;;14.40;39.40;94188.72;5058672;28;20470;-75
2021/12/01 11:40:58;;;;;;;10.13;8.97;;;;;;;14.14;38.60;94189.16;5048972;28;20505;-72
2021/12/01 11:43:26;;;;;;;10.90;8.67;;;;;;;14.35;38.06;94162.28;5057742;28;20814;-74
2021/12/01 11:45:53;;;;;;;8.17;5.60;;;;;;;12.87;40.07;94183.00;5064406;28;20772;-75